sensor_id;sensor_type;location;lat;lon;timestamp;temperature;humidity
19586;DHT22;9939;49.246;9.106;2023-04-01T00:00:52;9.70;99.90
19586;DHT22;9939;49.246;9.106;2023-04-01T00:03:20;9.80;99.90
19586;DHT22;9939;49.246;9.106;2023-04-01T00:05:47;9.80;99.90
19586;DHT22;9939;49.246;9.106;2023-04-01T00:08:14;9.80;99.90
19586;DHT22;9939;49.246;9.106;2023-04-01T00:10:42;9.80;99.90
19586;DHT22;9939;49.246;9.106;2023-04-01T00:13:09;9.80;99.90
19586;DHT22;9939;49.246;9.106;2023-04-01T00:15:36;9.80;99.90
19586;DHT22;9939;49.246;9.106;2023-04-01T00:18:03;9.70;99.90
19586;DHT22;9939;49.246;9.106;2023-04-01T00:20:31;9.80;99.90
19586;DHT22;9939;49.246;9.106;2023-04-01T00:22:58;9.80;99.90
19586;DHT22;9939;49.246;9.106;2023-04-01T00:25:25;9.80;99.90
19586;DHT22;9939;49.246;9.106;2023-04-01T00:27:52;9.80;99.90
19586;DHT22;9939;49.246;9.106;2023-04-01T00:30:20;9.80;99.90
19586;DHT22;9939;49.246;9.106;2023-04-01T00:32:53;9.80;99.90
19586;DHT22;9939;49.246;9.106;2023-04-01T00:35:20;9.80;99.90
19586;DHT22;9939;49.246;9.106;2023-04-01T00:37:47;9.90;99.90
19586;DHT22;9939;49.246;9.106;2023-04-01T00:40:22;9.80;99.90
19586;DHT22;9939;49.246;9.106;2023-04-01T00:42:50;9.80;99.90
19586;DHT22;9939;49.246;9.106;2023-04-01T00:45:24;9.80;99.90
19586;DHT22;9939;49.246;9.106;2023-04-01T00:47:52;9.80;99.90
19586;DHT22;9939;49.246;9.106;2023-04-01T00:50:21;9.70;99.90
19586;DHT22;9939;49.246;9.106;2023-04-01T00:52:49;9.70;99.90
19586;DHT22;9939;49.246;9.106;2023-04-01T00:55:16;9.70;99.90
19586;DHT22;9939;49.246;9.106;2023-04-01T00:57:44;9.70;99.90
19586;DHT22;9939;49.246;9.106;2023-04-01T01:00:12;9.70;99.90
19586;DHT22;9939;49.246;9.106;2023-04-01T01:02:43;9.80;99.90
19586;DHT22;9939;49.246;9.106;2023-04-01T01:05:12;9.80;99.90
19586;DHT22;9939;49.246;9.106;2023-04-01T01:07:56;9.80;99.90
19586;DHT22;9939;49.246;9.106;2023-04-01T01:10:32;9.70;99.90
19586;DHT22;9939;49.246;9.106;2023-04-01T01:18:12;9.70;99.90
19586;DHT22;9939;49.246;9.106;2023-04-01T01:31:22;9.70;99.90
19586;DHT22;9939;49.246;9.106;2023-04-01T01:36:22;9.70;99.90
19586;DHT22;9939;49.246;9.106;2023-04-01T01:38:50;9.70;99.90
19586;DHT22;9939;49.246;9.106;2023-04-01T01:41:17;9.70;99.90
19586;DHT22;9939;49.246;9.106;2023-04-01T01:43:47;9.70;99.90
19586;DHT22;9939;49.246;9.106;2023-04-01T01:46:18;9.70;99.90
19586;DHT22;9939;49.246;9.106;2023-04-01T01:48:46;9.60;99.90
19586;DHT22;9939;49.246;9.106;2023-04-01T01:51:14;9.60;99.90
19586;DHT22;9939;49.246;9.106;2023-04-01T01:53:41;9.50;99.90
19586;DHT22;9939;49.246;9.106;2023-04-01T01:56:10;9.60;99.90
19586;DHT22;9939;49.246;9.106;2023-04-01T01:58:43;9.50;99.90
19586;DHT22;9939;49.246;9.106;2023-04-01T02:01:17;9.60;99.90
19586;DHT22;9939;49.246;9.106;2023-04-01T02:03:47;9.70;99.90
19586;DHT22;9939;49.246;9.106;2023-04-01T02:06:15;9.70;99.90
19586;DHT22;9939;49.246;9.106;2023-04-01T02:11:17;9.80;99.90
19586;DHT22;9939;49.246;9.106;2023-04-01T02:16:51;9.90;99.90
19586;DHT22;9939;49.246;9.106;2023-04-01T02:19:20;9.90;99.90
19586;DHT22;9939;49.246;9.106;2023-04-01T02:21:51;9.90;99.90
19586;DHT22;9939;49.246;9.106;2023-04-01T02:24:19;9.80;99.90
19586;DHT22;9939;49.246;9.106;2023-04-01T02:26:50;9.80;99.90
19586;DHT22;9939;49.246;9.106;2023-04-01T02:29:22;9.80;99.90
19586;DHT22;9939;49.246;9.106;2023-04-01T02:31:49;9.80;99.90
19586;DHT22;9939;49.246;9.106;2023-04-01T02:34:18;9.70;99.90
19586;DHT22;9939;49.246;9.106;2023-04-01T02:36:45;9.70;99.90
19586;DHT22;9939;49.246;9.106;2023-04-01T02:39:13;9.80;99.90
19586;DHT22;9939;49.246;9.106;2023-04-01T02:41:41;9.80;99.90
19586;DHT22;9939;49.246;9.106;2023-04-01T02:44:09;9.70;99.90
19586;DHT22;9939;49.246;9.106;2023-04-01T02:46:36;9.80;99.90
19586;DHT22;9939;49.246;9.106;2023-04-01T02:49:04;9.70;99.90
19586;DHT22;9939;49.246;9.106;2023-04-01T02:51:31;9.70;99.90
19586;DHT22;9939;49.246;9.106;2023-04-01T02:53:58;9.70;99.90
19586;DHT22;9939;49.246;9.106;2023-04-01T02:56:25;9.70;99.90
19586;DHT22;9939;49.246;9.106;2023-04-01T02:58:53;9.70;99.90
19586;DHT22;9939;49.246;9.106;2023-04-01T03:01:20;9.70;99.90
19586;DHT22;9939;49.246;9.106;2023-04-01T03:03:48;9.70;99.90
19586;DHT22;9939;49.246;9.106;2023-04-01T03:06:15;9.80;99.90
19586;DHT22;9939;49.246;9.106;2023-04-01T03:08:43;9.80;99.90
19586;DHT22;9939;49.246;9.106;2023-04-01T03:11:11;9.80;99.90
19586;DHT22;9939;49.246;9.106;2023-04-01T03:13:38;9.80;99.90
19586;DHT22;9939;49.246;9.106;2023-04-01T03:16:05;9.80;99.90
19586;DHT22;9939;49.246;9.106;2023-04-01T03:18:34;9.80;99.90
19586;DHT22;9939;49.246;9.106;2023-04-01T03:21:17;9.80;99.90
19586;DHT22;9939;49.246;9.106;2023-04-01T03:23:45;9.80;99.90
19586;DHT22;9939;49.246;9.106;2023-04-01T03:26:12;9.80;99.90
19586;DHT22;9939;49.246;9.106;2023-04-01T03:28:40;9.80;99.90
19586;DHT22;9939;49.246;9.106;2023-04-01T03:31:07;9.80;99.90
19586;DHT22;9939;49.246;9.106;2023-04-01T03:33:41;9.80;99.90
19586;DHT22;9939;49.246;9.106;2023-04-01T03:36:08;9.90;99.90
19586;DHT22;9939;49.246;9.106;2023-04-01T03:38:35;9.90;99.90
19586;DHT22;9939;49.246;9.106;2023-04-01T03:41:03;9.90;99.90
19586;DHT22;9939;49.246;9.106;2023-04-01T03:43:31;9.90;99.90
19586;DHT22;9939;49.246;9.106;2023-04-01T03:45:59;9.90;99.90
19586;DHT22;9939;49.246;9.106;2023-04-01T03:48:27;9.90;99.90
19586;DHT22;9939;49.246;9.106;2023-04-01T03:50:54;9.90;99.90
19586;DHT22;9939;49.246;9.106;2023-04-01T03:53:22;9.90;99.90
19586;DHT22;9939;49.246;9.106;2023-04-01T03:55:49;9.90;99.90
19586;DHT22;9939;49.246;9.106;2023-04-01T03:58:18;9.80;99.90
19586;DHT22;9939;49.246;9.106;2023-04-01T04:00:45;9.80;99.90
19586;DHT22;9939;49.246;9.106;2023-04-01T04:03:12;9.70;99.90
19586;DHT22;9939;49.246;9.106;2023-04-01T04:05:45;9.80;99.90
19586;DHT22;9939;49.246;9.106;2023-04-01T04:08:13;9.70;99.90
19586;DHT22;9939;49.246;9.106;2023-04-01T04:10:41;9.70;99.90
19586;DHT22;9939;49.246;9.106;2023-04-01T04:13:08;9.70;99.90
19586;DHT22;9939;49.246;9.106;2023-04-01T04:15:39;9.70;99.90
19586;DHT22;9939;49.246;9.106;2023-04-01T04:18:07;9.70;99.90
19586;DHT22;9939;49.246;9.106;2023-04-01T04:20:34;9.70;99.90
19586;DHT22;9939;49.246;9.106;2023-04-01T04:23:01;9.60;99.90
19586;DHT22;9939;49.246;9.106;2023-04-01T04:25:28;9.50;99.90
19586;DHT22;9939;49.246;9.106;2023-04-01T04:27:56;9.50;99.90
19586;DHT22;9939;49.246;9.106;2023-04-01T04:30:23;9.50;99.90
19586;DHT22;9939;49.246;9.106;2023-04-01T04:32:50;9.40;99.90
19586;DHT22;9939;49.246;9.106;2023-04-01T04:35:17;9.60;99.90
19586;DHT22;9939;49.246;9.106;2023-04-01T04:37:45;9.50;99.90
19586;DHT22;9939;49.246;9.106;2023-04-01T04:40:12;9.50;99.90
19586;DHT22;9939;49.246;9.106;2023-04-01T04:42:41;9.60;99.90
19586;DHT22;9939;49.246;9.106;2023-04-01T04:45:12;9.50;99.90
19586;DHT22;9939;49.246;9.106;2023-04-01T04:47:45;9.60;99.90
19586;DHT22;9939;49.246;9.106;2023-04-01T04:50:12;9.60;99.90
19586;DHT22;9939;49.246;9.106;2023-04-01T04:52:40;9.60;99.90
19586;DHT22;9939;49.246;9.106;2023-04-01T04:55:07;9.70;99.90
19586;DHT22;9939;49.246;9.106;2023-04-01T04:57:34;9.70;99.90
19586;DHT22;9939;49.246;9.106;2023-04-01T05:00:02;9.70;99.90
19586;DHT22;9939;49.246;9.106;2023-04-01T05:03:08;9.80;99.90
19586;DHT22;9939;49.246;9.106;2023-04-01T05:05:35;9.80;99.90
19586;DHT22;9939;49.246;9.106;2023-04-01T05:08:03;9.90;99.90
19586;DHT22;9939;49.246;9.106;2023-04-01T05:10:31;9.80;99.90
19586;DHT22;9939;49.246;9.106;2023-04-01T05:12:58;9.90;99.90
19586;DHT22;9939;49.246;9.106;2023-04-01T05:15:25;9.90;99.90
19586;DHT22;9939;49.246;9.106;2023-04-01T05:17:54;9.90;99.90
19586;DHT22;9939;49.246;9.106;2023-04-01T05:20:21;9.90;99.90
19586;DHT22;9939;49.246;9.106;2023-04-01T05:22:48;10.00;99.90
19586;DHT22;9939;49.246;9.106;2023-04-01T05:25:15;9.90;99.90
19586;DHT22;9939;49.246;9.106;2023-04-01T05:27:42;10.00;99.90
19586;DHT22;9939;49.246;9.106;2023-04-01T05:30:10;10.00;99.90
19586;DHT22;9939;49.246;9.106;2023-04-01T05:32:57;9.90;99.90
19586;DHT22;9939;49.246;9.106;2023-04-01T05:35:24;10.00;99.90
19586;DHT22;9939;49.246;9.106;2023-04-01T05:37:51;10.00;99.90
19586;DHT22;9939;49.246;9.106;2023-04-01T05:40:20;10.10;99.90
19586;DHT22;9939;49.246;9.106;2023-04-01T05:42:47;10.20;99.90
19586;DHT22;9939;49.246;9.106;2023-04-01T05:45:15;10.10;99.90
19586;DHT22;9939;49.246;9.106;2023-04-01T05:48:05;10.10;99.90
19586;DHT22;9939;49.246;9.106;2023-04-01T05:50:39;10.20;99.90
19586;DHT22;9939;49.246;9.106;2023-04-01T05:53:06;10.20;99.90
19586;DHT22;9939;49.246;9.106;2023-04-01T05:55:35;10.20;99.90
19586;DHT22;9939;49.246;9.106;2023-04-01T05:58:03;10.20;99.90
19586;DHT22;9939;49.246;9.106;2023-04-01T06:00:30;10.20;99.90
19586;DHT22;9939;49.246;9.106;2023-04-01T06:02:59;10.30;99.90
19586;DHT22;9939;49.246;9.106;2023-04-01T06:05:27;10.30;99.90
19586;DHT22;9939;49.246;9.106;2023-04-01T06:07:55;10.30;99.90
19586;DHT22;9939;49.246;9.106;2023-04-01T06:10:35;10.30;99.90
19586;DHT22;9939;49.246;9.106;2023-04-01T06:15:48;10.20;99.90
19586;DHT22;9939;49.246;9.106;2023-04-01T06:18:25;10.30;99.90
19586;DHT22;9939;49.246;9.106;2023-04-01T06:26:15;10.30;99.90
19586;DHT22;9939;49.246;9.106;2023-04-01T06:38:43;10.20;99.90
19586;DHT22;9939;49.246;9.106;2023-04-01T06:53:05;10.00;99.90
19586;DHT22;9939;49.246;9.106;2023-04-01T06:55:53;9.90;99.90
19586;DHT22;9939;49.246;9.106;2023-04-01T06:58:42;9.90;99.90
19586;DHT22;9939;49.246;9.106;2023-04-01T07:01:34;10.10;99.90
19586;DHT22;9939;49.246;9.106;2023-04-01T07:10:12;9.90;99.90
19586;DHT22;9939;49.246;9.106;2023-04-01T07:13:00;9.90;99.90
19586;DHT22;9939;49.246;9.106;2023-04-01T07:15:58;9.80;99.90
19586;DHT22;9939;49.246;9.106;2023-04-01T07:18:50;9.70;99.90
19586;DHT22;9939;49.246;9.106;2023-04-01T07:23:56;9.60;99.90
19586;DHT22;9939;49.246;9.106;2023-04-01T07:26:48;9.50;99.90
19586;DHT22;9939;49.246;9.106;2023-04-01T07:29:21;9.40;99.90
19586;DHT22;9939;49.246;9.106;2023-04-01T07:36:49;9.40;99.90
19586;DHT22;9939;49.246;9.106;2023-04-01T07:39:30;9.50;99.90
19586;DHT22;9939;49.246;9.106;2023-04-01T07:49:38;9.40;99.90
19586;DHT22;9939;49.246;9.106;2023-04-01T07:52:16;9.40;99.90
19586;DHT22;9939;49.246;9.106;2023-04-01T07:55:00;9.40;99.90
19586;DHT22;9939;49.246;9.106;2023-04-01T07:57:39;9.40;99.90
19586;DHT22;9939;49.246;9.106;2023-04-01T08:00:14;9.30;99.90
19586;DHT22;9939;49.246;9.106;2023-04-01T08:03:12;9.20;99.90
19586;DHT22;9939;49.246;9.106;2023-04-01T08:08:33;9.10;99.90
19586;DHT22;9939;49.246;9.106;2023-04-01T08:21:21;9.20;99.90
19586;DHT22;9939;49.246;9.106;2023-04-01T08:23:51;9.30;99.90
19586;DHT22;9939;49.246;9.106;2023-04-01T08:28:53;9.30;99.90
19586;DHT22;9939;49.246;9.106;2023-04-01T08:33:53;9.30;99.90
19586;DHT22;9939;49.246;9.106;2023-04-01T08:36:26;9.20;99.90
19586;DHT22;9939;49.246;9.106;2023-04-01T08:39:18;9.30;99.90
19586;DHT22;9939;49.246;9.106;2023-04-01T08:47:24;9.30;99.90
19586;DHT22;9939;49.246;9.106;2023-04-01T08:55:31;9.40;99.90
19586;DHT22;9939;49.246;9.106;2023-04-01T08:58:16;9.40;99.90
19586;DHT22;9939;49.246;9.106;2023-04-01T09:06:26;9.80;99.90
19586;DHT22;9939;49.246;9.106;2023-04-01T09:35:47;9.10;99.90
19586;DHT22;9939;49.246;9.106;2023-04-01T09:46:00;9.00;99.90
19586;DHT22;9939;49.246;9.106;2023-04-01T09:53:48;9.20;99.90
19586;DHT22;9939;49.246;9.106;2023-04-01T10:12:49;9.50;99.90
19586;DHT22;9939;49.246;9.106;2023-04-01T10:22:58;9.50;99.90
19586;DHT22;9939;49.246;9.106;2023-04-01T10:33:45;9.40;99.90
19586;DHT22;9939;49.246;9.106;2023-04-01T10:47:11;9.40;99.90
19586;DHT22;9939;49.246;9.106;2023-04-01T10:52:44;9.60;99.90
19586;DHT22;9939;49.246;9.106;2023-04-01T10:55:51;9.50;99.90
19586;DHT22;9939;49.246;9.106;2023-04-01T10:58:45;9.50;99.90
19586;DHT22;9939;49.246;9.106;2023-04-01T11:05:06;9.40;99.90
19586;DHT22;9939;49.246;9.106;2023-04-01T11:10:49;9.40;99.90
19586;DHT22;9939;49.246;9.106;2023-04-01T11:50:30;9.40;99.90
19586;DHT22;9939;49.246;9.106;2023-04-01T11:53:15;9.40;99.90
19586;DHT22;9939;49.246;9.106;2023-04-01T12:02:12;9.20;99.90
19586;DHT22;9939;49.246;9.106;2023-04-01T12:04:27;9.20;99.90
19586;DHT22;9939;49.246;9.106;2023-04-01T12:07:14;9.30;99.90
19586;DHT22;9939;49.246;9.106;2023-04-01T12:12:42;9.30;99.90
19586;DHT22;9939;49.246;9.106;2023-04-01T12:25:26;9.90;99.90
19586;DHT22;9939;49.246;9.106;2023-04-01T12:51:29;9.90;99.90
19586;DHT22;9939;49.246;9.106;2023-04-01T12:54:24;9.80;99.90
19586;DHT22;9939;49.246;9.106;2023-04-01T12:59:24;9.80;99.90
19586;DHT22;9939;49.246;9.106;2023-04-01T13:14:32;10.10;99.90
19586;DHT22;9939;49.246;9.106;2023-04-01T13:17:13;10.20;99.90
19586;DHT22;9939;49.246;9.106;2023-04-01T13:22:35;10.80;99.90
19586;DHT22;9939;49.246;9.106;2023-04-01T13:25:10;10.10;99.90
19586;DHT22;9939;49.246;9.106;2023-04-01T13:27:44;10.10;99.90
19586;DHT22;9939;49.246;9.106;2023-04-01T13:30:30;10.00;99.90
19586;DHT22;9939;49.246;9.106;2023-04-01T13:35:55;10.30;99.90
19586;DHT22;9939;49.246;9.106;2023-04-01T13:38:38;10.30;99.90
19586;DHT22;9939;49.246;9.106;2023-04-01T13:43:43;10.40;99.90
19586;DHT22;9939;49.246;9.106;2023-04-01T13:51:36;10.40;99.90
19586;DHT22;9939;49.246;9.106;2023-04-01T14:27:56;10.60;99.90
19586;DHT22;9939;49.246;9.106;2023-04-01T14:40:56;10.20;99.90
19586;DHT22;9939;49.246;9.106;2023-04-01T14:51:29;10.40;99.90
19586;DHT22;9939;49.246;9.106;2023-04-01T14:54:04;10.40;99.90
19586;DHT22;9939;49.246;9.106;2023-04-01T14:56:36;10.60;99.90
19586;DHT22;9939;49.246;9.106;2023-04-01T14:59:07;10.70;99.90
19586;DHT22;9939;49.246;9.106;2023-04-01T15:12:02;10.80;99.90
19586;DHT22;9939;49.246;9.106;2023-04-01T15:35:12;10.30;99.90
19586;DHT22;9939;49.246;9.106;2023-04-01T15:45:18;10.60;99.90
19586;DHT22;9939;49.246;9.106;2023-04-01T15:53:01;10.60;99.90
19586;DHT22;9939;49.246;9.106;2023-04-01T16:08:31;10.50;99.90
19586;DHT22;9939;49.246;9.106;2023-04-01T16:19:07;10.40;99.90
19586;DHT22;9939;49.246;9.106;2023-04-01T16:21:51;10.50;99.90
19586;DHT22;9939;49.246;9.106;2023-04-01T16:27:06;10.50;99.90
19586;DHT22;9939;49.246;9.106;2023-04-01T16:29:46;10.60;99.90
19586;DHT22;9939;49.246;9.106;2023-04-01T16:35:01;10.80;99.90
19586;DHT22;9939;49.246;9.106;2023-04-01T16:37:33;10.70;99.90
19586;DHT22;9939;49.246;9.106;2023-04-01T16:40:03;10.70;99.90
19586;DHT22;9939;49.246;9.106;2023-04-01T16:42:51;10.70;99.90
19586;DHT22;9939;49.246;9.106;2023-04-01T16:45:37;10.50;99.90
19586;DHT22;9939;49.246;9.106;2023-04-01T16:48:10;10.50;99.90
19586;DHT22;9939;49.246;9.106;2023-04-01T16:50:42;10.50;99.90
19586;DHT22;9939;49.246;9.106;2023-04-01T16:55:50;10.20;99.90
19586;DHT22;9939;49.246;9.106;2023-04-01T17:01:00;10.00;99.90
19586;DHT22;9939;49.246;9.106;2023-04-01T17:03:39;9.90;99.90
19586;DHT22;9939;49.246;9.106;2023-04-01T17:06:11;9.90;99.90
19586;DHT22;9939;49.246;9.106;2023-04-01T17:11:11;9.90;99.90
19586;DHT22;9939;49.246;9.106;2023-04-01T17:16:35;10.00;99.90
19586;DHT22;9939;49.246;9.106;2023-04-01T17:19:19;10.00;99.90
19586;DHT22;9939;49.246;9.106;2023-04-01T17:21:58;10.00;99.90
19586;DHT22;9939;49.246;9.106;2023-04-01T17:29:59;10.00;99.90
19586;DHT22;9939;49.246;9.106;2023-04-01T17:32:39;10.00;99.90
19586;DHT22;9939;49.246;9.106;2023-04-01T17:35:20;9.80;99.90
19586;DHT22;9939;49.246;9.106;2023-04-01T17:40:28;9.70;99.90
19586;DHT22;9939;49.246;9.106;2023-04-01T17:43:20;9.60;99.90
19586;DHT22;9939;49.246;9.106;2023-04-01T17:45:58;9.60;99.90
19586;DHT22;9939;49.246;9.106;2023-04-01T17:48:49;9.90;99.90
19586;DHT22;9939;49.246;9.106;2023-04-01T17:51:28;9.50;99.90
19586;DHT22;9939;49.246;9.106;2023-04-01T17:56:39;9.30;99.90
19586;DHT22;9939;49.246;9.106;2023-04-01T18:05:19;9.00;99.90
19586;DHT22;9939;49.246;9.106;2023-04-01T18:07:30;9.00;99.90
19586;DHT22;9939;49.246;9.106;2023-04-01T18:20:34;9.00;99.90
19586;DHT22;9939;49.246;9.106;2023-04-01T18:23:11;8.90;99.90
19586;DHT22;9939;49.246;9.106;2023-04-01T18:25:41;9.00;99.90
19586;DHT22;9939;49.246;9.106;2023-04-01T18:28:14;8.90;99.90
19586;DHT22;9939;49.246;9.106;2023-04-01T18:30:44;8.90;99.90
19586;DHT22;9939;49.246;9.106;2023-04-01T18:36:08;8.90;99.90
19586;DHT22;9939;49.246;9.106;2023-04-01T18:38:40;8.70;99.90
19586;DHT22;9939;49.246;9.106;2023-04-01T18:41:13;8.80;99.90
19586;DHT22;9939;49.246;9.106;2023-04-01T18:49:20;8.70;99.90
19586;DHT22;9939;49.246;9.106;2023-04-01T18:51:49;8.70;99.90
19586;DHT22;9939;49.246;9.106;2023-04-01T18:54:23;8.60;99.90
19586;DHT22;9939;49.246;9.106;2023-04-01T18:56:50;8.70;99.90
19586;DHT22;9939;49.246;9.106;2023-04-01T18:59:28;8.60;99.90
19586;DHT22;9939;49.246;9.106;2023-04-01T19:10:22;8.60;99.90
19586;DHT22;9939;49.246;9.106;2023-04-01T19:23:15;8.40;99.90
19586;DHT22;9939;49.246;9.106;2023-04-01T19:25:51;8.40;99.90
19586;DHT22;9939;49.246;9.106;2023-04-01T19:43:21;8.60;99.90
19586;DHT22;9939;49.246;9.106;2023-04-01T19:50:57;8.60;99.90
19586;DHT22;9939;49.246;9.106;2023-04-01T19:56:16;8.60;99.90
19586;DHT22;9939;49.246;9.106;2023-04-01T19:58:51;8.60;99.90
19586;DHT22;9939;49.246;9.106;2023-04-01T20:01:33;8.60;99.90
19586;DHT22;9939;49.246;9.106;2023-04-01T20:04:34;8.60;99.90
19586;DHT22;9939;49.246;9.106;2023-04-01T20:07:07;8.60;99.90
19586;DHT22;9939;49.246;9.106;2023-04-01T20:09:48;8.80;99.90
19586;DHT22;9939;49.246;9.106;2023-04-01T20:14:57;8.70;99.90
19586;DHT22;9939;49.246;9.106;2023-04-01T20:20:18;8.70;99.90
19586;DHT22;9939;49.246;9.106;2023-04-01T20:25:26;8.80;99.90
19586;DHT22;9939;49.246;9.106;2023-04-01T20:27:58;8.90;99.90
19586;DHT22;9939;49.246;9.106;2023-04-01T20:33:10;8.80;99.90
19586;DHT22;9939;49.246;9.106;2023-04-01T20:35:48;8.70;99.90
19586;DHT22;9939;49.246;9.106;2023-04-01T20:40:57;8.80;99.90
19586;DHT22;9939;49.246;9.106;2023-04-01T20:46:11;8.70;99.90
19586;DHT22;9939;49.246;9.106;2023-04-01T20:51:18;8.70;99.90
19586;DHT22;9939;49.246;9.106;2023-04-01T20:58:59;8.80;99.90
19586;DHT22;9939;49.246;9.106;2023-04-01T21:11:43;8.90;99.90
19586;DHT22;9939;49.246;9.106;2023-04-01T21:19:44;8.80;99.90
19586;DHT22;9939;49.246;9.106;2023-04-01T21:38:48;9.00;99.90
19586;DHT22;9939;49.246;9.106;2023-04-01T21:46:56;9.00;99.90
19586;DHT22;9939;49.246;9.106;2023-04-01T21:52:07;8.90;99.90
19586;DHT22;9939;49.246;9.106;2023-04-01T21:54:46;9.10;99.90
19586;DHT22;9939;49.246;9.106;2023-04-01T22:04:56;9.10;99.90
19586;DHT22;9939;49.246;9.106;2023-04-01T22:07:33;9.00;99.90
19586;DHT22;9939;49.246;9.106;2023-04-01T22:10:13;9.10;99.90
19586;DHT22;9939;49.246;9.106;2023-04-01T22:15:27;9.00;99.90
19586;DHT22;9939;49.246;9.106;2023-04-01T22:18:03;9.10;99.90
19586;DHT22;9939;49.246;9.106;2023-04-01T22:20:33;9.10;99.90
19586;DHT22;9939;49.246;9.106;2023-04-01T22:25:42;9.00;99.90
19586;DHT22;9939;49.246;9.106;2023-04-01T22:30:47;9.10;99.90
19586;DHT22;9939;49.246;9.106;2023-04-01T22:41:38;9.10;99.90
19586;DHT22;9939;49.246;9.106;2023-04-01T22:43:55;9.10;99.90
19586;DHT22;9939;49.246;9.106;2023-04-01T22:46:31;9.10;99.90
19586;DHT22;9939;49.246;9.106;2023-04-01T22:51:38;9.10;99.90
19586;DHT22;9939;49.246;9.106;2023-04-01T22:56:40;8.90;99.90
19586;DHT22;9939;49.246;9.106;2023-04-01T22:59:13;8.80;99.90
19586;DHT22;9939;49.246;9.106;2023-04-01T23:01:44;8.70;99.90
19586;DHT22;9939;49.246;9.106;2023-04-01T23:04:15;8.70;99.90
19586;DHT22;9939;49.246;9.106;2023-04-01T23:06:45;8.80;99.90
19586;DHT22;9939;49.246;9.106;2023-04-01T23:09:17;8.80;99.90
19586;DHT22;9939;49.246;9.106;2023-04-01T23:25:02;8.80;99.90
19586;DHT22;9939;49.246;9.106;2023-04-01T23:27:39;8.60;99.90
19586;DHT22;9939;49.246;9.106;2023-04-01T23:32:59;8.70;99.90
19586;DHT22;9939;49.246;9.106;2023-04-01T23:35:46;8.70;99.90
19586;DHT22;9939;49.246;9.106;2023-04-01T23:38:13;8.70;99.90
19586;DHT22;9939;49.246;9.106;2023-04-01T23:40:40;8.60;99.90
19586;DHT22;9939;49.246;9.106;2023-04-01T23:43:14;8.60;99.90
19586;DHT22;9939;49.246;9.106;2023-04-01T23:45:41;8.60;99.90
19586;DHT22;9939;49.246;9.106;2023-04-01T23:48:12;8.50;99.90
19586;DHT22;9939;49.246;9.106;2023-04-01T23:50:41;8.60;99.90
19586;DHT22;9939;49.246;9.106;2023-04-01T23:53:20;8.50;99.90
19586;DHT22;9939;49.246;9.106;2023-04-01T23:55:50;8.40;99.90
19586;DHT22;9939;49.246;9.106;2023-04-01T23:58:24;8.50;99.90
